Buoy 32622

sailwx.info

Track history (hours):
 
Tides and Currents Weather Stations Pressure Air Temp Water Temp Dewpoint Dewpoint Depression Visibility Wind Speed Wind Dir Waves Ship Positions

Aadnyj

Last reported at 2017-Jun-23 13:00 UTC. Time now 2017-Jun-23 15:28 UTC.
Position S 14°13' W 154°39'.

Length 56 m.

Type: Towing. MMSI: 413600286.

Water temperature 28.8 ° C

Date/timePositionNaut miles runAvg speedWind from/ knotsBaromVisibWave heightAir tempDewpointWater temp
2017-Jun-23 13:00S 14°13' W 154°39'0 0.0 28.8
2017-Jun-23 12:00S 14°13' W 154°39'5 1.2 28.8
2017-Jun-23 08:00S 14°14' W 154°34'2 2.4 28.8
2017-Jun-23 07:00S 14°15' W 154°32'1 1.3 28.8
2017-Jun-23 06:00S 14°16' W 154°31'1 0.6 28.8
2017-Jun-23 05:00S 14°16' W 154°31'2 1.8 28.8
2017-Jun-23 04:00S 14°16' W 154°29'1 1.3 28.8
2017-Jun-23 03:00S 14°17' W 154°28'0 0.0 28.8
2017-Jun-23 02:00S 14°17' W 154°28'6 5.8 28.8
2017-Jun-23 01:00S 14°19' W 154°23'0 0.0 28.9
2017-Jun-22 20:00S 14°19' W 154°23'0 0.0 28.9
2017-Jun-22 19:00S 14°19' W 154°23'1 1.3 28.9
2017-Jun-22 18:00S 14°20' W 154°22'0 0.0 28.9
2017-Jun-22 17:00S 14°20' W 154°22'1 0.6 28.9
2017-Jun-22 16:00S 14°20' W 154°21'0 0.0 28.9
2017-Jun-22 15:00S 14°20' W 154°21'1 0.7 28.9
2017-Jun-22 13:00S 14°21' W 154°20'0 0.0 28.9
2017-Jun-22 12:00S 14°21' W 154°20'0 0.0 28.9
2017-Jun-22 09:00S 14°21' W 154°20'1 0.8 29.1
2017-Jun-22 08:00S 14°20' W 154°20'0 0.0 29.1
2017-Jun-22 07:00S 14°20' W 154°20'1 0.6 29.2
2017-Jun-22 06:00S 14°20' W 154°20'2 1.7 29.2
2017-Jun-22 05:00S 14°20' W 154°18'2 1.7 29.3
2017-Jun-22 04:00S 14°20' W 154°20'1 0.3 29.4
2017-Jun-22 02:00S 14°19' W 154°20'1 0.6 29.6
2017-Jun-22 01:00S 14°19' W 154°20'0 0.0 29.8
2017-Jun-22 00:00S 14°19' W 154°20'0 0.0 29.8
2017-Jun-21 23:00S 14°19' W 154°20'1 0.4 29.5
2017-Jun-21 20:00S 14°18' W 154°20'1 0.8 28.9
2017-Jun-21 19:00S 14°17' W 154°19'1 1.2 28.9
2017-Jun-21 18:00S 14°17' W 154°20'1 0.8 28.9
2017-Jun-21 17:00S 14°18' W 154°20'1 1.3 28.9
2017-Jun-21 16:00S 14°17' W 154°19'2 2.3 28.9
2017-Jun-21 15:00S 14°17' W 154°17'0 0.0 28.9
2017-Jun-21 14:00S 14°17' W 154°17'0 0.0 28.9
2017-Jun-21 13:00S 14°17' W 154°17'0 0.0 28.9
2017-Jun-21 12:00S 14°17' W 154°17'1 0.2 28.9
2017-Jun-21 07:00S 14°16' W 154°16'0 0.0 28.9
2017-Jun-21 06:00S 14°16' W 154°16'1 0.8 29.0
2017-Jun-21 05:00S 14°16' W 154°17'0 0.0 29.0
2017-Jun-21 04:00S 14°16' W 154°17'2 1.7 29.1
2017-Jun-21 03:00S 14°16' W 154°15'0 0.0 29.1
2017-Jun-21 02:00S 14°16' W 154°15'1 0.6 29.1
2017-Jun-21 01:00S 14°16' W 154°14'0 0.0 29.1
2017-Jun-21 00:00S 14°16' W 154°14'0 0.0 29.2
2017-Jun-20 23:00S 14°16' W 154°14'3 0.8 29.2
2017-Jun-20 20:00S 14°14' W 154°13'1 1.3 28.9
2017-Jun-20 19:00S 14°14' W 154°11'1 1.2 28.9
2017-Jun-20 18:00S 14°13' W 154°11'0 0.0 28.9
2017-Jun-20 17:00S 14°13' W 154°11'1 0.6 28.9
2017-Jun-20 16:00S 14°13' W 154°11'2 1.7 28.9
2017-Jun-20 15:00S 14°13' W 154°09'0 0.0 28.9
2017-Jun-20 13:00S 14°13' W 154°09'2 1.2 28.9
2017-Jun-20 11:00S 14°14' W 154°07'0 0.0 28.9
2017-Jun-20 09:00S 14°14' W 154°07'0 0.0 29.0
2017-Jun-20 08:00S 14°14' W 154°07'1 0.8 29.0
2017-Jun-20 07:00S 14°14' W 154°06'0 0.0 29.1
2017-Jun-20 06:00S 14°14' W 154°06'1 1.2 29.1
2017-Jun-20 05:00S 14°14' W 154°05'0 0.0 29.1
2017-Jun-20 04:00S 14°14' W 154°05'1 1.2 29.2
2017-Jun-20 03:00S 14°14' W 154°04'1 0.6 29.3
2017-Jun-20 02:00S 14°14' W 154°04'1 1.2 29.3
2017-Jun-20 01:00S 14°14' W 154°03'0 0.0 29.4
2017-Jun-20 00:00S 14°14' W 154°03'2 0.5 29.3
2017-Jun-19 20:00S 14°13' W 154°02'4 3.8 29.0
2017-Jun-19 19:00S 14°15' W 153°59'1 1.2 29.0
2017-Jun-19 18:00S 14°14' W 153°59'1 0.6 28.9
2017-Jun-19 17:00S 14°14' W 153°59'0 0.0 28.9
2017-Jun-19 16:00S 14°14' W 153°59'0 0.0 29.0
2017-Jun-19 15:00S 14°14' W 153°59'0 0.0 29.0
2017-Jun-19 14:00S 14°14' W 153°59'0 0.0 29.0
2017-Jun-19 13:00S 14°14' W 153°59'0 0.0 29.0
2017-Jun-19 12:00S 14°14' W 153°59'0 0.0 29.0
2017-Jun-19 11:00S 14°14' W 153°59'1 0.4 29.0
2017-Jun-19 08:00S 14°14' W 153°58'1 0.4 29.1
2017-Jun-19 06:00S 14°13' W 153°57'1 0.8 29.2
2017-Jun-19 05:00S 14°13' W 153°56'1 0.8 29.2
2017-Jun-19 04:00S 14°12' W 153°56'0 0.0 29.3
2017-Jun-19 03:00S 14°12' W 153°56'0 0.0 29.4
2017-Jun-19 02:00S 14°12' W 153°56'1 0.8 29.4
2017-Jun-19 01:00S 14°11' W 153°55'0 0.0 29.5
2017-Jun-19 00:00S 14°11' W 153°55'3 0.7 29.6
2017-Jun-18 20:00S 14°09' W 153°53'1 1.2 29.0
2017-Jun-18 19:00S 14°09' W 153°52'1 0.6 29.0
2017-Jun-18 18:00S 14°08' W 153°52'1 0.8 28.9
2017-Jun-18 17:00S 14°09' W 153°53'2 2.1 28.9
2017-Jun-18 16:00S 14°08' W 153°51'1 1.2 29.0
2017-Jun-18 15:00S 14°08' W 153°50'0 0.0 29.0
2017-Jun-18 14:00S 14°08' W 153°50'1 0.6 29.0
2017-Jun-18 13:00S 14°08' W 153°49'0 0.0 29.0
2017-Jun-18 12:00S 14°08' W 153°49'0 0.0 29.0
2017-Jun-18 11:00S 14°08' W 153°49'2 0.6 29.0
2017-Jun-18 08:00S 14°07' W 153°47'0 0.0 29.0
2017-Jun-18 07:00S 14°07' W 153°47'1 0.6 29.0
2017-Jun-18 06:00S 14°07' W 153°47'1 0.6 29.0
2017-Jun-18 05:00S 14°07' W 153°47'2 1.8 29.0
2017-Jun-18 04:00S 14°07' W 153°46'0 0.0 29.1
2017-Jun-18 02:00S 14°07' W 153°46'0 0.0 29.1
2017-Jun-18 01:00S 14°07' W 153°46'0 0.0 29.1
2017-Jun-18 00:00S 14°07' W 153°46'1 0.3 29.1
2017-Jun-17 20:00S 14°05' W 153°45'1 0.6 28.9
2017-Jun-17 19:00S 14°05' W 153°45'0 0.0 28.9
2017-Jun-17 18:00S 14°05' W 153°45'1 0.8 28.9
2017-Jun-17 17:00S 14°04' W 153°44'1 1.2 28.9
2017-Jun-17 16:00S 14°04' W 153°43'0 0.0 28.9
2017-Jun-17 15:00S 14°04' W 153°43'1 1.2 28.9
2017-Jun-17 14:00S 14°03' W 153°43'1 0.6 28.9
2017-Jun-17 13:00S 14°03' W 153°43'0 0.0 28.9
2017-Jun-17 12:00S 14°03' W 153°43'3 0.7 28.9
2017-Jun-17 08:00S 14°02' W 153°40'0 0.0 29.0
2017-Jun-17 07:00S 14°02' W 153°40'1 0.6 29.1
2017-Jun-17 06:00S 14°02' W 153°40'1 0.8 29.1
2017-Jun-17 05:00S 14°02' W 153°39'3 2.9 29.1
2017-Jun-17 04:00S 14°02' W 153°36'1 1.3 29.0
2017-Jun-17 03:00S 14°01' W 153°37'1 1.3 29.1
2017-Jun-17 02:00S 14°02' W 153°35'0 0.0 29.1
2017-Jun-17 01:00S 14°02' W 153°35'0 0.0 29.2
2017-Jun-17 00:00S 14°02' W 153°35'3 0.9 29.2
2017-Jun-16 20:00S 14°04' W 153°32'0 0.0 29.0
2017-Jun-16 19:00S 14°04' W 153°32'0 0.0 29.0
2017-Jun-16 18:00S 14°04' W 153°32'1 0.6 29.0
2017-Jun-16 17:00S 14°04' W 153°32'1 0.6 29.0
2017-Jun-16 16:00S 14°04' W 153°32'1 0.6 29.0
2017-Jun-16 15:00S 14°04' W 153°32'0 0.0 29.0
2017-Jun-16 14:00S 14°04' W 153°32'0 0.0 29.0
2017-Jun-16 13:00S 14°04' W 153°32'0 0.0 29.0
2017-Jun-16 12:00S 14°04' W 153°32'0 0.0 29.1
2017-Jun-16 11:00S 14°04' W 153°32'2 0.6 29.1
2017-Jun-16 08:00S 14°03' W 153°30'0 0.0 29.1
2017-Jun-16 07:00S 14°03' W 153°30'1 1.2 29.1
2017-Jun-16 06:00S 14°02' W 153°30'1 1.2 29.1
2017-Jun-16 05:00S 14°02' W 153°31'0 0.0 29.2
2017-Jun-16 03:00S 14°02' W 153°31'0 0.0 29.3
2017-Jun-16 01:00S 14°02' W 153°31'4 0.8 29.3
2017-Jun-15 20:00S 13°58' W 153°32'1 0.8 28.9
2017-Jun-15 19:00S 13°58' W 153°31'1 1.2 28.9
2017-Jun-15 18:00S 13°57' W 153°31'1 0.6 28.9
2017-Jun-15 17:00S 13°57' W 153°32'1 0.8 28.9
2017-Jun-15 16:00S 13°56' W 153°31'2 1.7 28.9
2017-Jun-15 15:00S 13°55' W 153°30'0 0.0 28.9
2017-Jun-15 14:00S 13°55' W 153°30'1 1.2 28.9
2017-Jun-15 13:00S 13°54' W 153°30'0 0.0 28.9
2017-Jun-15 12:00S 13°54' W 153°30'3 1.1 28.9
2017-Jun-15 09:00S 13°51' W 153°29'0 0.0 29.0
2017-Jun-15 08:00S 13°51' W 153°29'1 1.3 29.0
2017-Jun-15 07:00S 13°50' W 153°28'2 1.8 29.0
2017-Jun-15 06:00S 13°49' W 153°26'1 1.2 29.0
2017-Jun-15 05:00S 13°48' W 153°26'1 0.6 29.0
2017-Jun-15 04:00S 13°48' W 153°26'0 0.0 29.1
2017-Jun-15 03:00S 13°48' W 153°26'5 5.1 29.1
2017-Jun-15 02:00S 13°44' W 153°23'0 0.0 29.1
2017-Jun-15 01:00S 13°44' W 153°23'2 0.5 29.1
2017-Jun-14 20:00S 13°44' W 153°20'0 0.0 29.1
2017-Jun-14 19:00S 13°44' W 153°20'1 1.2 29.1
2017-Jun-14 18:00S 13°43' W 153°20'1 1.3 29.0
2017-Jun-14 17:00S 13°43' W 153°19'1 1.3 29.0
2017-Jun-14 16:00S 13°42' W 153°18'1 0.8 29.1
2017-Jun-14 15:00S 13°41' W 153°19'0 0.0 29.1
2017-Jun-14 13:00S 13°41' W 153°19'0 0.0 29.1
2017-Jun-14 12:00S 13°41' W 153°19'2 0.7 29.1
2017-Jun-14 09:00S 13°40' W 153°17'0 0.0 29.1
2017-Jun-14 08:00S 13°40' W 153°17'2 1.8 29.2
2017-Jun-14 07:00S 13°38' W 153°17'0 0.0 29.2
2017-Jun-14 05:00S 13°38' W 153°17'1 0.6 29.2
2017-Jun-14 04:00S 13°38' W 153°17'1 1.2 29.3
2017-Jun-14 03:00S 13°37' W 153°17'0 0.0 29.4
2017-Jun-14 02:00S 13°37' W 153°17'0 0.0 29.4
2017-Jun-14 01:00S 13°37' W 153°17'4 4.4 29.4
2017-Jun-14 00:00S 13°32' W 153°16'0 0.0 29.5
2017-Jun-13 20:00S 13°32' W 153°16'1 0.8 29.2
2017-Jun-13 19:00S 13°32' W 153°16'2 1.9 29.2
2017-Jun-13 18:00S 13°30' W 153°16'3 1.5 29.2
2017-Jun-13 16:00S 13°27' W 153°16'0 0.0 29.1
2017-Jun-13 15:00S 13°27' W 153°16'0 0.0 29.2
2017-Jun-13 13:00S 13°27' W 153°16'   29.2
Track history (hours):
 
Tides and Currents Weather Stations Pressure Air Temp Water Temp Dewpoint Dewpoint Depression Visibility Wind Speed Wind Dir Waves Ship Positions

Aadnyj

Last reported at 2017-Jun-23 13:00 UTC. Time now 2017-Jun-23 15:28 UTC.
Position S 14°13' W 154°39'.

Length 56 m.

Type: Towing. MMSI: 413600286.

Water temperature 28.8 ° C

Date/timePositionNaut miles runAvg speedWind from/ knotsBaromVisibWave heightAir tempDewpointWater temp
2017-Jun-23 13:00S 14°13' W 154°39'0 0.0 28.8
2017-Jun-23 12:00S 14°13' W 154°39'5 1.2 28.8
2017-Jun-23 08:00S 14°14' W 154°34'2 2.4 28.8
2017-Jun-23 07:00S 14°15' W 154°32'1 1.3 28.8
2017-Jun-23 06:00S 14°16' W 154°31'1 0.6 28.8
2017-Jun-23 05:00S 14°16' W 154°31'2 1.8 28.8
2017-Jun-23 04:00S 14°16' W 154°29'1 1.3 28.8
2017-Jun-23 03:00S 14°17' W 154°28'0 0.0 28.8
2017-Jun-23 02:00S 14°17' W 154°28'6 5.8 28.8
2017-Jun-23 01:00S 14°19' W 154°23'0 0.0 28.9
2017-Jun-22 20:00S 14°19' W 154°23'0 0.0 28.9
2017-Jun-22 19:00S 14°19' W 154°23'1 1.3 28.9
2017-Jun-22 18:00S 14°20' W 154°22'0 0.0 28.9
2017-Jun-22 17:00S 14°20' W 154°22'1 0.6 28.9
2017-Jun-22 16:00S 14°20' W 154°21'0 0.0 28.9
2017-Jun-22 15:00S 14°20' W 154°21'1 0.7 28.9
2017-Jun-22 13:00S 14°21' W 154°20'0 0.0 28.9
2017-Jun-22 12:00S 14°21' W 154°20'0 0.0 28.9
2017-Jun-22 09:00S 14°21' W 154°20'1 0.8 29.1
2017-Jun-22 08:00S 14°20' W 154°20'0 0.0 29.1
2017-Jun-22 07:00S 14°20' W 154°20'1 0.6 29.2
2017-Jun-22 06:00S 14°20' W 154°20'2 1.7 29.2
2017-Jun-22 05:00S 14°20' W 154°18'2 1.7 29.3
2017-Jun-22 04:00S 14°20' W 154°20'1 0.3 29.4
2017-Jun-22 02:00S 14°19' W 154°20'1 0.6 29.6
2017-Jun-22 01:00S 14°19' W 154°20'0 0.0 29.8
2017-Jun-22 00:00S 14°19' W 154°20'0 0.0 29.8
2017-Jun-21 23:00S 14°19' W 154°20'1 0.4 29.5
2017-Jun-21 20:00S 14°18' W 154°20'1 0.8 28.9
2017-Jun-21 19:00S 14°17' W 154°19'1 1.2 28.9
2017-Jun-21 18:00S 14°17' W 154°20'1 0.8 28.9
2017-Jun-21 17:00S 14°18' W 154°20'1 1.3 28.9
2017-Jun-21 16:00S 14°17' W 154°19'2 2.3 28.9
2017-Jun-21 15:00S 14°17' W 154°17'0 0.0 28.9
2017-Jun-21 14:00S 14°17' W 154°17'0 0.0 28.9
2017-Jun-21 13:00S 14°17' W 154°17'0 0.0 28.9
2017-Jun-21 12:00S 14°17' W 154°17'1 0.2 28.9
2017-Jun-21 07:00S 14°16' W 154°16'0 0.0 28.9
2017-Jun-21 06:00S 14°16' W 154°16'1 0.8 29.0
2017-Jun-21 05:00S 14°16' W 154°17'0 0.0 29.0
2017-Jun-21 04:00S 14°16' W 154°17'2 1.7 29.1
2017-Jun-21 03:00S 14°16' W 154°15'0 0.0 29.1
2017-Jun-21 02:00S 14°16' W 154°15'1 0.6 29.1
2017-Jun-21 01:00S 14°16' W 154°14'0 0.0 29.1
2017-Jun-21 00:00S 14°16' W 154°14'0 0.0 29.2
2017-Jun-20 23:00S 14°16' W 154°14'3 0.8 29.2
2017-Jun-20 20:00S 14°14' W 154°13'1 1.3 28.9
2017-Jun-20 19:00S 14°14' W 154°11'1 1.2 28.9
2017-Jun-20 18:00S 14°13' W 154°11'0 0.0 28.9
2017-Jun-20 17:00S 14°13' W 154°11'1 0.6 28.9
2017-Jun-20 16:00S 14°13' W 154°11'2 1.7 28.9
2017-Jun-20 15:00S 14°13' W 154°09'0 0.0 28.9
2017-Jun-20 13:00S 14°13' W 154°09'2 1.2 28.9
2017-Jun-20 11:00S 14°14' W 154°07'0 0.0 28.9
2017-Jun-20 09:00S 14°14' W 154°07'0 0.0 29.0
2017-Jun-20 08:00S 14°14' W 154°07'1 0.8 29.0
2017-Jun-20 07:00S 14°14' W 154°06'0 0.0 29.1
2017-Jun-20 06:00S 14°14' W 154°06'1 1.2 29.1
2017-Jun-20 05:00S 14°14' W 154°05'0 0.0 29.1
2017-Jun-20 04:00S 14°14' W 154°05'1 1.2 29.2
2017-Jun-20 03:00S 14°14' W 154°04'1 0.6 29.3
2017-Jun-20 02:00S 14°14' W 154°04'1 1.2 29.3
2017-Jun-20 01:00S 14°14' W 154°03'0 0.0 29.4
2017-Jun-20 00:00S 14°14' W 154°03'2 0.5 29.3
2017-Jun-19 20:00S 14°13' W 154°02'4 3.8 29.0
2017-Jun-19 19:00S 14°15' W 153°59'1 1.2 29.0
2017-Jun-19 18:00S 14°14' W 153°59'1 0.6 28.9
2017-Jun-19 17:00S 14°14' W 153°59'0 0.0 28.9
2017-Jun-19 16:00S 14°14' W 153°59'0 0.0 29.0
2017-Jun-19 15:00S 14°14' W 153°59'0 0.0 29.0
2017-Jun-19 14:00S 14°14' W 153°59'0 0.0 29.0
2017-Jun-19 13:00S 14°14' W 153°59'0 0.0 29.0
2017-Jun-19 12:00S 14°14' W 153°59'0 0.0 29.0
2017-Jun-19 11:00S 14°14' W 153°59'1 0.4 29.0
2017-Jun-19 08:00S 14°14' W 153°58'1 0.4 29.1
2017-Jun-19 06:00S 14°13' W 153°57'1 0.8 29.2
2017-Jun-19 05:00S 14°13' W 153°56'1 0.8 29.2
2017-Jun-19 04:00S 14°12' W 153°56'0 0.0 29.3
2017-Jun-19 03:00S 14°12' W 153°56'0 0.0 29.4
2017-Jun-19 02:00S 14°12' W 153°56'1 0.8 29.4
2017-Jun-19 01:00S 14°11' W 153°55'0 0.0 29.5
2017-Jun-19 00:00S 14°11' W 153°55'3 0.7 29.6
2017-Jun-18 20:00S 14°09' W 153°53'1 1.2 29.0
2017-Jun-18 19:00S 14°09' W 153°52'1 0.6 29.0
2017-Jun-18 18:00S 14°08' W 153°52'1 0.8 28.9
2017-Jun-18 17:00S 14°09' W 153°53'2 2.1 28.9
2017-Jun-18 16:00S 14°08' W 153°51'1 1.2 29.0
2017-Jun-18 15:00S 14°08' W 153°50'0 0.0 29.0
2017-Jun-18 14:00S 14°08' W 153°50'1 0.6 29.0
2017-Jun-18 13:00S 14°08' W 153°49'0 0.0 29.0
2017-Jun-18 12:00S 14°08' W 153°49'0 0.0 29.0
2017-Jun-18 11:00S 14°08' W 153°49'2 0.6 29.0
2017-Jun-18 08:00S 14°07' W 153°47'0 0.0 29.0
2017-Jun-18 07:00S 14°07' W 153°47'1 0.6 29.0
2017-Jun-18 06:00S 14°07' W 153°47'1 0.6 29.0
2017-Jun-18 05:00S 14°07' W 153°47'2 1.8 29.0
2017-Jun-18 04:00S 14°07' W 153°46'0 0.0 29.1
2017-Jun-18 02:00S 14°07' W 153°46'0 0.0 29.1
2017-Jun-18 01:00S 14°07' W 153°46'0 0.0 29.1
2017-Jun-18 00:00S 14°07' W 153°46'1 0.3 29.1
2017-Jun-17 20:00S 14°05' W 153°45'1 0.6 28.9
2017-Jun-17 19:00S 14°05' W 153°45'0 0.0 28.9
2017-Jun-17 18:00S 14°05' W 153°45'1 0.8 28.9
2017-Jun-17 17:00S 14°04' W 153°44'1 1.2 28.9
2017-Jun-17 16:00S 14°04' W 153°43'0 0.0 28.9
2017-Jun-17 15:00S 14°04' W 153°43'1 1.2 28.9
2017-Jun-17 14:00S 14°03' W 153°43'1 0.6 28.9
2017-Jun-17 13:00S 14°03' W 153°43'0 0.0 28.9
2017-Jun-17 12:00S 14°03' W 153°43'3 0.7 28.9
2017-Jun-17 08:00S 14°02' W 153°40'0 0.0 29.0
2017-Jun-17 07:00S 14°02' W 153°40'1 0.6 29.1
2017-Jun-17 06:00S 14°02' W 153°40'1 0.8 29.1
2017-Jun-17 05:00S 14°02' W 153°39'3 2.9 29.1
2017-Jun-17 04:00S 14°02' W 153°36'1 1.3 29.0
2017-Jun-17 03:00S 14°01' W 153°37'1 1.3 29.1
2017-Jun-17 02:00S 14°02' W 153°35'0 0.0 29.1
2017-Jun-17 01:00S 14°02' W 153°35'0 0.0 29.2
2017-Jun-17 00:00S 14°02' W 153°35'3 0.9 29.2
2017-Jun-16 20:00S 14°04' W 153°32'0 0.0 29.0
2017-Jun-16 19:00S 14°04' W 153°32'0 0.0 29.0
2017-Jun-16 18:00S 14°04' W 153°32'1 0.6 29.0
2017-Jun-16 17:00S 14°04' W 153°32'1 0.6 29.0
2017-Jun-16 16:00S 14°04' W 153°32'1 0.6 29.0
2017-Jun-16 15:00S 14°04' W 153°32'0 0.0 29.0
2017-Jun-16 14:00S 14°04' W 153°32'0 0.0 29.0
2017-Jun-16 13:00S 14°04' W 153°32'0 0.0 29.0
2017-Jun-16 12:00S 14°04' W 153°32'0 0.0 29.1
2017-Jun-16 11:00S 14°04' W 153°32'2 0.6 29.1
2017-Jun-16 08:00S 14°03' W 153°30'0 0.0 29.1
2017-Jun-16 07:00S 14°03' W 153°30'1 1.2 29.1
2017-Jun-16 06:00S 14°02' W 153°30'1 1.2 29.1
2017-Jun-16 05:00S 14°02' W 153°31'0 0.0 29.2
2017-Jun-16 03:00S 14°02' W 153°31'0 0.0 29.3
2017-Jun-16 01:00S 14°02' W 153°31'4 0.8 29.3
2017-Jun-15 20:00S 13°58' W 153°32'1 0.8 28.9
2017-Jun-15 19:00S 13°58' W 153°31'1 1.2 28.9
2017-Jun-15 18:00S 13°57' W 153°31'1 0.6 28.9
2017-Jun-15 17:00S 13°57' W 153°32'1 0.8 28.9
2017-Jun-15 16:00S 13°56' W 153°31'2 1.7 28.9
2017-Jun-15 15:00S 13°55' W 153°30'0 0.0 28.9
2017-Jun-15 14:00S 13°55' W 153°30'1 1.2 28.9
2017-Jun-15 13:00S 13°54' W 153°30'0 0.0 28.9
2017-Jun-15 12:00S 13°54' W 153°30'3 1.1 28.9
2017-Jun-15 09:00S 13°51' W 153°29'0 0.0 29.0
2017-Jun-15 08:00S 13°51' W 153°29'1 1.3 29.0
2017-Jun-15 07:00S 13°50' W 153°28'2 1.8 29.0
2017-Jun-15 06:00S 13°49' W 153°26'1 1.2 29.0
2017-Jun-15 05:00S 13°48' W 153°26'1 0.6 29.0
2017-Jun-15 04:00S 13°48' W 153°26'0 0.0 29.1
2017-Jun-15 03:00S 13°48' W 153°26'5 5.1 29.1
2017-Jun-15 02:00S 13°44' W 153°23'0 0.0 29.1
2017-Jun-15 01:00S 13°44' W 153°23'2 0.5 29.1
2017-Jun-14 20:00S 13°44' W 153°20'0 0.0 29.1
2017-Jun-14 19:00S 13°44' W 153°20'1 1.2 29.1
2017-Jun-14 18:00S 13°43' W 153°20'1 1.3 29.0
2017-Jun-14 17:00S 13°43' W 153°19'1 1.3 29.0
2017-Jun-14 16:00S 13°42' W 153°18'1 0.8 29.1
2017-Jun-14 15:00S 13°41' W 153°19'0 0.0 29.1
2017-Jun-14 13:00S 13°41' W 153°19'0 0.0 29.1
2017-Jun-14 12:00S 13°41' W 153°19'2 0.7 29.1
2017-Jun-14 09:00S 13°40' W 153°17'0 0.0 29.1
2017-Jun-14 08:00S 13°40' W 153°17'2 1.8 29.2
2017-Jun-14 07:00S 13°38' W 153°17'0 0.0 29.2
2017-Jun-14 05:00S 13°38' W 153°17'1 0.6 29.2
2017-Jun-14 04:00S 13°38' W 153°17'1 1.2 29.3
2017-Jun-14 03:00S 13°37' W 153°17'0 0.0 29.4
2017-Jun-14 02:00S 13°37' W 153°17'0 0.0 29.4
2017-Jun-14 01:00S 13°37' W 153°17'4 4.4 29.4
2017-Jun-14 00:00S 13°32' W 153°16'0 0.0 29.5
2017-Jun-13 20:00S 13°32' W 153°16'1 0.8 29.2
2017-Jun-13 19:00S 13°32' W 153°16'2 1.9 29.2
2017-Jun-13 18:00S 13°30' W 153°16'3 1.5 29.2
2017-Jun-13 16:00S 13°27' W 153°16'0 0.0 29.1
2017-Jun-13 15:00S 13°27' W 153°16'0 0.0 29.2
2017-Jun-13 13:00S 13°27' W 153°16'   29.2

Dump ship's entire track history